sensor_id;sensor_type;location;lat;lon;timestamp;P1;P2;P0
77896;PMS5003;67092;64.282;21.056;2023-04-06T00:01:59;4;4;
77896;PMS5003;67092;64.282;21.056;2023-04-06T00:04:24;3;3;
77896;PMS5003;67092;64.282;21.056;2023-04-06T00:06:50;5;5;
77896;PMS5003;67092;64.282;21.056;2023-04-06T00:09:16;3;3;
77896;PMS5003;67092;64.282;21.056;2023-04-06T00:11:41;5;4;
77896;PMS5003;67092;64.282;21.056;2023-04-06T00:14:07;4;3;
77896;PMS5003;67092;64.282;21.056;2023-04-06T00:16:33;2;2;
77896;PMS5003;67092;64.282;21.056;2023-04-06T00:18:59;2;2;
77896;PMS5003;67092;64.282;21.056;2023-04-06T00:21:24;3;3;
77896;PMS5003;67092;64.282;21.056;2023-04-06T00:23:49;3;3;
77896;PMS5003;67092;64.282;21.056;2023-04-06T00:26:15;3;2;
77896;PMS5003;67092;64.282;21.056;2023-04-06T00:28:41;2;2;
77896;PMS5003;67092;64.282;21.056;2023-04-06T00:31:06;4;4;
77896;PMS5003;67092;64.282;21.056;2023-04-06T00:33:32;3;2;
77896;PMS5003;67092;64.282;21.056;2023-04-06T00:35:58;3;3;
77896;PMS5003;67092;64.282;21.056;2023-04-06T00:38:23;2;2;
77896;PMS5003;67092;64.282;21.056;2023-04-06T00:40:49;2;2;
77896;PMS5003;67092;64.282;21.056;2023-04-06T00:43:15;2;2;
77896;PMS5003;67092;64.282;21.056;2023-04-06T00:45:41;3;3;
77896;PMS5003;67092;64.282;21.056;2023-04-06T00:48:06;4;2;
77896;PMS5003;67092;64.282;21.056;2023-04-06T00:50:32;3;3;
77896;PMS5003;67092;64.282;21.056;2023-04-06T00:52:58;3;3;
77896;PMS5003;67092;64.282;21.056;2023-04-06T00:55:23;3;3;
77896;PMS5003;67092;64.282;21.056;2023-04-06T00:57:48;2;2;
77896;PMS5003;67092;64.282;21.056;2023-04-06T01:00:14;3;2;
77896;PMS5003;67092;64.282;21.056;2023-04-06T01:02:40;3;2;
77896;PMS5003;67092;64.282;21.056;2023-04-06T01:05:06;2;2;
77896;PMS5003;67092;64.282;21.056;2023-04-06T01:07:31;1;1;
77896;PMS5003;67092;64.282;21.056;2023-04-06T01:09:57;2;2;
77896;PMS5003;67092;64.282;21.056;2023-04-06T01:12:22;1;1;
77896;PMS5003;67092;64.282;21.056;2023-04-06T01:14:48;3;2;
77896;PMS5003;67092;64.282;21.056;2023-04-06T01:17:14;3;3;
77896;PMS5003;67092;64.282;21.056;2023-04-06T01:19:39;3;3;
77896;PMS5003;67092;64.282;21.056;2023-04-06T01:22:05;2;2;
77896;PMS5003;67092;64.282;21.056;2023-04-06T01:24:31;2;2;
77896;PMS5003;67092;64.282;21.056;2023-04-06T01:26:56;2;2;
77896;PMS5003;67092;64.282;21.056;2023-04-06T01:29:22;2;2;
77896;PMS5003;67092;64.282;21.056;2023-04-06T01:31:48;3;1;
77896;PMS5003;67092;64.282;21.056;2023-04-06T01:34:13;2;2;
77896;PMS5003;67092;64.282;21.056;2023-04-06T01:36:39;3;3;
77896;PMS5003;67092;64.282;21.056;2023-04-06T01:39:04;2;2;
77896;PMS5003;67092;64.282;21.056;2023-04-06T01:41:30;1;1;
77896;PMS5003;67092;64.282;21.056;2023-04-06T01:43:56;2;2;
77896;PMS5003;67092;64.282;21.056;2023-04-06T01:46:21;1;1;
77896;PMS5003;67092;64.282;21.056;2023-04-06T01:48:47;2;2;
77896;PMS5003;67092;64.282;21.056;2023-04-06T01:51:12;1;1;
77896;PMS5003;67092;64.282;21.056;2023-04-06T01:53:38;2;2;
77896;PMS5003;67092;64.282;21.056;2023-04-06T01:56:04;2;2;
77896;PMS5003;67092;64.282;21.056;2023-04-06T01:58:30;3;2;
77896;PMS5003;67092;64.282;21.056;2023-04-06T02:00:55;2;2;
77896;PMS5003;67092;64.282;21.056;2023-04-06T02:03:21;6;6;
77896;PMS5003;67092;64.282;21.056;2023-04-06T02:05:46;1;1;
77896;PMS5003;67092;64.282;21.056;2023-04-06T02:08:12;2;2;
77896;PMS5003;67092;64.282;21.056;2023-04-06T02:10:37;2;2;
77896;PMS5003;67092;64.282;21.056;2023-04-06T02:13:03;1;1;
77896;PMS5003;67092;64.282;21.056;2023-04-06T02:15:28;1;1;
77896;PMS5003;67092;64.282;21.056;2023-04-06T02:17:54;2;2;
77896;PMS5003;67092;64.282;21.056;2023-04-06T02:20:20;1;1;
77896;PMS5003;67092;64.282;21.056;2023-04-06T02:22:45;4;3;
77896;PMS5003;67092;64.282;21.056;2023-04-06T02:25:11;2;2;
77896;PMS5003;67092;64.282;21.056;2023-04-06T02:27:37;1;1;
77896;PMS5003;67092;64.282;21.056;2023-04-06T02:30:02;2;2;
77896;PMS5003;67092;64.282;21.056;2023-04-06T02:32:28;2;2;
77896;PMS5003;67092;64.282;21.056;2023-04-06T02:34:54;1;1;
77896;PMS5003;67092;64.282;21.056;2023-04-06T02:37:19;3;3;
77896;PMS5003;67092;64.282;21.056;2023-04-06T02:39:45;2;2;
77896;PMS5003;67092;64.282;21.056;2023-04-06T02:42:11;1;1;
77896;PMS5003;67092;64.282;21.056;2023-04-06T02:44:36;2;2;
77896;PMS5003;67092;64.282;21.056;2023-04-06T02:47:02;1;1;
77896;PMS5003;67092;64.282;21.056;2023-04-06T02:49:27;1;1;
77896;PMS5003;67092;64.282;21.056;2023-04-06T02:51:53;1;1;
77896;PMS5003;67092;64.282;21.056;2023-04-06T02:54:19;0;0;
77896;PMS5003;67092;64.282;21.056;2023-04-06T02:56:44;1;1;
77896;PMS5003;67092;64.282;21.056;2023-04-06T02:59:10;1;1;
77896;PMS5003;67092;64.282;21.056;2023-04-06T03:01:36;1;1;
77896;PMS5003;67092;64.282;21.056;2023-04-06T03:04:01;1;1;
77896;PMS5003;67092;64.282;21.056;2023-04-06T03:06:27;1;1;
77896;PMS5003;67092;64.282;21.056;2023-04-06T03:08:53;2;1;
77896;PMS5003;67092;64.282;21.056;2023-04-06T03:11:18;0;0;
77896;PMS5003;67092;64.282;21.056;2023-04-06T03:13:44;1;1;
77896;PMS5003;67092;64.282;21.056;2023-04-06T03:16:09;2;2;
77896;PMS5003;67092;64.282;21.056;2023-04-06T03:18:35;1;1;
77896;PMS5003;67092;64.282;21.056;2023-04-06T03:21:01;1;1;
77896;PMS5003;67092;64.282;21.056;2023-04-06T03:23:26;1;1;
77896;PMS5003;67092;64.282;21.056;2023-04-06T03:25:52;0;0;
77896;PMS5003;67092;64.282;21.056;2023-04-06T03:28:18;1;1;
77896;PMS5003;67092;64.282;21.056;2023-04-06T03:30:44;0;0;
77896;PMS5003;67092;64.282;21.056;2023-04-06T03:33:09;2;2;
77896;PMS5003;67092;64.282;21.056;2023-04-06T03:35:34;1;1;
77896;PMS5003;67092;64.282;21.056;2023-04-06T03:38:00;1;1;
77896;PMS5003;67092;64.282;21.056;2023-04-06T03:40:26;1;1;
77896;PMS5003;67092;64.282;21.056;2023-04-06T03:42:51;1;1;
77896;PMS5003;67092;64.282;21.056;2023-04-06T03:45:17;2;2;
77896;PMS5003;67092;64.282;21.056;2023-04-06T03:47:43;1;1;
77896;PMS5003;67092;64.282;21.056;2023-04-06T03:50:09;0;0;
77896;PMS5003;67092;64.282;21.056;2023-04-06T03:52:34;2;0;
77896;PMS5003;67092;64.282;21.056;2023-04-06T03:55:00;2;2;
77896;PMS5003;67092;64.282;21.056;2023-04-06T03:57:25;0;0;
77896;PMS5003;67092;64.282;21.056;2023-04-06T03:59:51;1;1;
77896;PMS5003;67092;64.282;21.056;2023-04-06T04:02:17;1;1;
77896;PMS5003;67092;64.282;21.056;2023-04-06T04:04:42;1;1;
77896;PMS5003;67092;64.282;21.056;2023-04-06T04:07:08;1;1;
77896;PMS5003;67092;64.282;21.056;2023-04-06T04:09:34;1;1;
77896;PMS5003;67092;64.282;21.056;2023-04-06T04:11:59;0;0;
77896;PMS5003;67092;64.282;21.056;2023-04-06T04:14:25;0;0;
77896;PMS5003;67092;64.282;21.056;2023-04-06T04:16:50;1;1;
77896;PMS5003;67092;64.282;21.056;2023-04-06T04:19:16;2;1;
77896;PMS5003;67092;64.282;21.056;2023-04-06T04:21:42;0;0;
77896;PMS5003;67092;64.282;21.056;2023-04-06T04:24:07;0;0;
77896;PMS5003;67092;64.282;21.056;2023-04-06T04:26:33;1;1;
77896;PMS5003;67092;64.282;21.056;2023-04-06T04:28:59;0;0;
77896;PMS5003;67092;64.282;21.056;2023-04-06T04:31:24;1;0;
77896;PMS5003;67092;64.282;21.056;2023-04-06T04:33:50;0;0;
77896;PMS5003;67092;64.282;21.056;2023-04-06T04:36:16;2;2;
77896;PMS5003;67092;64.282;21.056;2023-04-06T04:38:41;1;0;
77896;PMS5003;67092;64.282;21.056;2023-04-06T04:41:07;1;1;
77896;PMS5003;67092;64.282;21.056;2023-04-06T04:43:32;0;0;
77896;PMS5003;67092;64.282;21.056;2023-04-06T04:45:58;1;1;
77896;PMS5003;67092;64.282;21.056;2023-04-06T04:48:24;2;2;
77896;PMS5003;67092;64.282;21.056;2023-04-06T04:50:49;1;1;
77896;PMS5003;67092;64.282;21.056;2023-04-06T04:53:15;1;0;
77896;PMS5003;67092;64.282;21.056;2023-04-06T04:55:41;0;0;
77896;PMS5003;67092;64.282;21.056;2023-04-06T04:58:06;1;1;
77896;PMS5003;67092;64.282;21.056;2023-04-06T05:00:32;1;1;
77896;PMS5003;67092;64.282;21.056;2023-04-06T05:02:57;1;1;
77896;PMS5003;67092;64.282;21.056;2023-04-06T05:05:23;1;1;
77896;PMS5003;67092;64.282;21.056;2023-04-06T05:07:49;2;1;
77896;PMS5003;67092;64.282;21.056;2023-04-06T05:10:14;2;2;
77896;PMS5003;67092;64.282;21.056;2023-04-06T05:12:40;3;3;
77896;PMS5003;67092;64.282;21.056;2023-04-06T05:15:06;1;0;
77896;PMS5003;67092;64.282;21.056;2023-04-06T05:17:31;1;1;
77896;PMS5003;67092;64.282;21.056;2023-04-06T05:19:57;1;1;
77896;PMS5003;67092;64.282;21.056;2023-04-06T05:22:23;1;1;
77896;PMS5003;67092;64.282;21.056;2023-04-06T05:24:48;2;2;
77896;PMS5003;67092;64.282;21.056;2023-04-06T05:27:14;1;1;
77896;PMS5003;67092;64.282;21.056;2023-04-06T05:29:40;1;1;
77896;PMS5003;67092;64.282;21.056;2023-04-06T05:32:05;0;0;
77896;PMS5003;67092;64.282;21.056;2023-04-06T05:34:31;2;1;
77896;PMS5003;67092;64.282;21.056;2023-04-06T05:36:57;1;1;
77896;PMS5003;67092;64.282;21.056;2023-04-06T05:39:22;1;1;
77896;PMS5003;67092;64.282;21.056;2023-04-06T05:41:48;1;1;
77896;PMS5003;67092;64.282;21.056;2023-04-06T05:44:13;1;1;
77896;PMS5003;67092;64.282;21.056;2023-04-06T05:46:39;0;0;
77896;PMS5003;67092;64.282;21.056;2023-04-06T05:49:04;2;2;
77896;PMS5003;67092;64.282;21.056;2023-04-06T05:51:30;1;0;
77896;PMS5003;67092;64.282;21.056;2023-04-06T05:53:56;2;2;
77896;PMS5003;67092;64.282;21.056;2023-04-06T05:56:21;2;2;
77896;PMS5003;67092;64.282;21.056;2023-04-06T05:58:47;1;1;
77896;PMS5003;67092;64.282;21.056;2023-04-06T06:01:13;0;0;
77896;PMS5003;67092;64.282;21.056;2023-04-06T06:03:38;1;1;
77896;PMS5003;67092;64.282;21.056;2023-04-06T06:06:04;1;0;
77896;PMS5003;67092;64.282;21.056;2023-04-06T06:08:30;1;1;
77896;PMS5003;67092;64.282;21.056;2023-04-06T06:10:55;2;1;
77896;PMS5003;67092;64.282;21.056;2023-04-06T06:13:21;2;1;
77896;PMS5003;67092;64.282;21.056;2023-04-06T06:15:46;1;1;
77896;PMS5003;67092;64.282;21.056;2023-04-06T06:18:12;2;2;
77896;PMS5003;67092;64.282;21.056;2023-04-06T06:20:38;4;3;
77896;PMS5003;67092;64.282;21.056;2023-04-06T06:23:03;1;1;
77896;PMS5003;67092;64.282;21.056;2023-04-06T06:25:29;1;1;
77896;PMS5003;67092;64.282;21.056;2023-04-06T06:27:55;3;2;
77896;PMS5003;67092;64.282;21.056;2023-04-06T06:30:20;1;1;
77896;PMS5003;67092;64.282;21.056;2023-04-06T06:32:46;2;1;
77896;PMS5003;67092;64.282;21.056;2023-04-06T06:35:12;2;1;
77896;PMS5003;67092;64.282;21.056;2023-04-06T06:37:37;3;2;
77896;PMS5003;67092;64.282;21.056;2023-04-06T06:40:03;2;2;
77896;PMS5003;67092;64.282;21.056;2023-04-06T06:42:29;2;2;
77896;PMS5003;67092;64.282;21.056;2023-04-06T06:44:54;1;1;
77896;PMS5003;67092;64.282;21.056;2023-04-06T06:47:20;0;0;
77896;PMS5003;67092;64.282;21.056;2023-04-06T06:49:45;2;2;
77896;PMS5003;67092;64.282;21.056;2023-04-06T06:52:11;1;1;
77896;PMS5003;67092;64.282;21.056;2023-04-06T06:54:37;1;1;
77896;PMS5003;67092;64.282;21.056;2023-04-06T06:57:02;0;0;
77896;PMS5003;67092;64.282;21.056;2023-04-06T06:59:28;2;2;
77896;PMS5003;67092;64.282;21.056;2023-04-06T07:01:54;0;0;
77896;PMS5003;67092;64.282;21.056;2023-04-06T07:04:19;2;2;
77896;PMS5003;67092;64.282;21.056;2023-04-06T07:06:45;1;1;
77896;PMS5003;67092;64.282;21.056;2023-04-06T07:09:10;0;0;
77896;PMS5003;67092;64.282;21.056;2023-04-06T07:11:36;1;1;
77896;PMS5003;67092;64.282;21.056;2023-04-06T07:14:02;2;2;
77896;PMS5003;67092;64.282;21.056;2023-04-06T07:16:28;1;1;
77896;PMS5003;67092;64.282;21.056;2023-04-06T07:18:53;1;1;
77896;PMS5003;67092;64.282;21.056;2023-04-06T07:21:19;2;1;
77896;PMS5003;67092;64.282;21.056;2023-04-06T07:23:44;1;1;
77896;PMS5003;67092;64.282;21.056;2023-04-06T07:26:10;1;1;
77896;PMS5003;67092;64.282;21.056;2023-04-06T07:28:36;1;1;
77896;PMS5003;67092;64.282;21.056;2023-04-06T07:31:01;2;2;
77896;PMS5003;67092;64.282;21.056;2023-04-06T07:33:27;0;0;
77896;PMS5003;67092;64.282;21.056;2023-04-06T07:35:53;1;1;
77896;PMS5003;67092;64.282;21.056;2023-04-06T07:38:18;1;1;
77896;PMS5003;67092;64.282;21.056;2023-04-06T07:40:44;1;1;
77896;PMS5003;67092;64.282;21.056;2023-04-06T07:43:09;1;1;
77896;PMS5003;67092;64.282;21.056;2023-04-06T07:45:35;0;0;
77896;PMS5003;67092;64.282;21.056;2023-04-06T07:48:01;1;1;
77896;PMS5003;67092;64.282;21.056;2023-04-06T07:50:26;1;1;
77896;PMS5003;67092;64.282;21.056;2023-04-06T07:52:52;1;1;
77896;PMS5003;67092;64.282;21.056;2023-04-06T07:55:18;1;0;
77896;PMS5003;67092;64.282;21.056;2023-04-06T07:57:43;1;1;
77896;PMS5003;67092;64.282;21.056;2023-04-06T08:00:09;0;0;
77896;PMS5003;67092;64.282;21.056;2023-04-06T08:02:35;1;1;
77896;PMS5003;67092;64.282;21.056;2023-04-06T08:05:00;1;1;
77896;PMS5003;67092;64.282;21.056;2023-04-06T08:07:26;1;1;
77896;PMS5003;67092;64.282;21.056;2023-04-06T08:09:51;1;1;
77896;PMS5003;67092;64.282;21.056;2023-04-06T08:12:17;1;1;
77896;PMS5003;67092;64.282;21.056;2023-04-06T08:14:43;2;1;
77896;PMS5003;67092;64.282;21.056;2023-04-06T08:17:08;1;1;
77896;PMS5003;67092;64.282;21.056;2023-04-06T08:19:34;1;1;
77896;PMS5003;67092;64.282;21.056;2023-04-06T08:22:00;0;0;
77896;PMS5003;67092;64.282;21.056;2023-04-06T08:24:25;1;1;
77896;PMS5003;67092;64.282;21.056;2023-04-06T08:26:51;1;1;
77896;PMS5003;67092;64.282;21.056;2023-04-06T08:29:17;1;1;
77896;PMS5003;67092;64.282;21.056;2023-04-06T08:31:42;1;1;
77896;PMS5003;67092;64.282;21.056;2023-04-06T08:34:08;0;0;
77896;PMS5003;67092;64.282;21.056;2023-04-06T08:36:34;0;0;
77896;PMS5003;67092;64.282;21.056;2023-04-06T08:38:59;0;0;
77896;PMS5003;67092;64.282;21.056;2023-04-06T08:41:25;1;1;
77896;PMS5003;67092;64.282;21.056;2023-04-06T08:43:52;1;0;
77896;PMS5003;67092;64.282;21.056;2023-04-06T08:46:17;2;2;
77896;PMS5003;67092;64.282;21.056;2023-04-06T08:48:42;1;1;
77896;PMS5003;67092;64.282;21.056;2023-04-06T08:51:07;1;1;
77896;PMS5003;67092;64.282;21.056;2023-04-06T08:53:33;0;0;
77896;PMS5003;67092;64.282;21.056;2023-04-06T08:55:59;1;1;
77896;PMS5003;67092;64.282;21.056;2023-04-06T08:58:24;1;1;
77896;PMS5003;67092;64.282;21.056;2023-04-06T09:00:50;1;1;
77896;PMS5003;67092;64.282;21.056;2023-04-06T09:03:16;0;0;
77896;PMS5003;67092;64.282;21.056;2023-04-06T09:05:42;1;1;
77896;PMS5003;67092;64.282;21.056;2023-04-06T09:08:07;0;0;
77896;PMS5003;67092;64.282;21.056;2023-04-06T09:10:33;1;1;
77896;PMS5003;67092;64.282;21.056;2023-04-06T09:13:04;1;1;
77896;PMS5003;67092;64.282;21.056;2023-04-06T09:15:24;0;0;
77896;PMS5003;67092;64.282;21.056;2023-04-06T09:17:49;2;2;
77896;PMS5003;67092;64.282;21.056;2023-04-06T09:20:21;0;0;
77896;PMS5003;67092;64.282;21.056;2023-04-06T09:22:41;2;1;
77896;PMS5003;67092;64.282;21.056;2023-04-06T09:25:08;0;0;
77896;PMS5003;67092;64.282;21.056;2023-04-06T09:27:32;1;1;
77896;PMS5003;67092;64.282;21.056;2023-04-06T09:30:02;1;1;
77896;PMS5003;67092;64.282;21.056;2023-04-06T09:32:23;1;1;
77896;PMS5003;67092;64.282;21.056;2023-04-06T09:34:49;1;0;
77896;PMS5003;67092;64.282;21.056;2023-04-06T09:37:15;1;1;
77896;PMS5003;67092;64.282;21.056;2023-04-06T09:39:40;0;0;
77896;PMS5003;67092;64.282;21.056;2023-04-06T09:42:06;0;0;
77896;PMS5003;67092;64.282;21.056;2023-04-06T09:44:32;0;0;
77896;PMS5003;67092;64.282;21.056;2023-04-06T09:46:57;2;2;
77896;PMS5003;67092;64.282;21.056;2023-04-06T09:49:23;0;0;
77896;PMS5003;67092;64.282;21.056;2023-04-06T09:51:52;1;1;
77896;PMS5003;67092;64.282;21.056;2023-04-06T09:54:15;1;1;
77896;PMS5003;67092;64.282;21.056;2023-04-06T09:56:43;1;1;
77896;PMS5003;67092;64.282;21.056;2023-04-06T09:59:08;0;0;
77896;PMS5003;67092;64.282;21.056;2023-04-06T10:01:32;2;1;
77896;PMS5003;67092;64.282;21.056;2023-04-06T10:04:00;1;1;
77896;PMS5003;67092;64.282;21.056;2023-04-06T10:06:23;1;1;
77896;PMS5003;67092;64.282;21.056;2023-04-06T10:08:49;0;0;
77896;PMS5003;67092;64.282;21.056;2023-04-06T10:11:14;1;1;
77896;PMS5003;67092;64.282;21.056;2023-04-06T10:13:39;1;1;
77896;PMS5003;67092;64.282;21.056;2023-04-06T10:16:05;1;1;
77896;PMS5003;67092;64.282;21.056;2023-04-06T10:18:31;1;1;
77896;PMS5003;67092;64.282;21.056;2023-04-06T10:20:57;2;1;
77896;PMS5003;67092;64.282;21.056;2023-04-06T10:23:24;0;0;
77896;PMS5003;67092;64.282;21.056;2023-04-06T10:25:53;2;2;
77896;PMS5003;67092;64.282;21.056;2023-04-06T10:28:13;1;1;
77896;PMS5003;67092;64.282;21.056;2023-04-06T10:30:41;1;1;
77896;PMS5003;67092;64.282;21.056;2023-04-06T10:38:00;1;1;
77896;PMS5003;67092;64.282;21.056;2023-04-06T10:40:22;1;1;
77896;PMS5003;67092;64.282;21.056;2023-04-06T10:42:47;0;0;
77896;PMS5003;67092;64.282;21.056;2023-04-06T10:45:19;1;1;
77896;PMS5003;67092;64.282;21.056;2023-04-06T10:47:39;1;1;
77896;PMS5003;67092;64.282;21.056;2023-04-06T10:50:04;2;2;
77896;PMS5003;67092;64.282;21.056;2023-04-06T10:52:30;2;2;
77896;PMS5003;67092;64.282;21.056;2023-04-06T10:54:55;0;0;
77896;PMS5003;67092;64.282;21.056;2023-04-06T10:59:47;1;0;
77896;PMS5003;67092;64.282;21.056;2023-04-06T11:04:38;1;1;
77896;PMS5003;67092;64.282;21.056;2023-04-06T11:07:04;1;1;
77896;PMS5003;67092;64.282;21.056;2023-04-06T11:09:29;1;1;
77896;PMS5003;67092;64.282;21.056;2023-04-06T11:11:55;1;1;
77896;PMS5003;67092;64.282;21.056;2023-04-06T11:14:21;1;1;
77896;PMS5003;67092;64.282;21.056;2023-04-06T11:16:47;0;0;
77896;PMS5003;67092;64.282;21.056;2023-04-06T11:19:12;1;1;
77896;PMS5003;67092;64.282;21.056;2023-04-06T11:21:38;0;0;
77896;PMS5003;67092;64.282;21.056;2023-04-06T11:24:04;0;0;
77896;PMS5003;67092;64.282;21.056;2023-04-06T11:26:29;1;1;
77896;PMS5003;67092;64.282;21.056;2023-04-06T11:28:55;1;1;
77896;PMS5003;67092;64.282;21.056;2023-04-06T11:31:20;1;1;
77896;PMS5003;67092;64.282;21.056;2023-04-06T11:33:46;0;0;
77896;PMS5003;67092;64.282;21.056;2023-04-06T11:36:11;1;1;
77896;PMS5003;67092;64.282;21.056;2023-04-06T11:38:38;1;0;
77896;PMS5003;67092;64.282;21.056;2023-04-06T11:41:02;1;1;
77896;PMS5003;67092;64.282;21.056;2023-04-06T11:43:28;0;0;
77896;PMS5003;67092;64.282;21.056;2023-04-06T11:48:19;2;2;
77896;PMS5003;67092;64.282;21.056;2023-04-06T11:50:46;1;1;
77896;PMS5003;67092;64.282;21.056;2023-04-06T11:53:11;0;0;
77896;PMS5003;67092;64.282;21.056;2023-04-06T11:55:37;0;0;
77896;PMS5003;67092;64.282;21.056;2023-04-06T11:58:02;1;1;
77896;PMS5003;67092;64.282;21.056;2023-04-06T12:00:28;1;0;
77896;PMS5003;67092;64.282;21.056;2023-04-06T12:02:53;1;1;
77896;PMS5003;67092;64.282;21.056;2023-04-06T12:05:19;1;1;
77896;PMS5003;67092;64.282;21.056;2023-04-06T12:07:45;1;1;
77896;PMS5003;67092;64.282;21.056;2023-04-06T12:10:10;1;1;
77896;PMS5003;67092;64.282;21.056;2023-04-06T12:12:36;0;0;
77896;PMS5003;67092;64.282;21.056;2023-04-06T12:15:02;0;0;
77896;PMS5003;67092;64.282;21.056;2023-04-06T12:17:27;1;1;
77896;PMS5003;67092;64.282;21.056;2023-04-06T12:19:53;1;1;
77896;PMS5003;67092;64.282;21.056;2023-04-06T12:22:18;0;0;
77896;PMS5003;67092;64.282;21.056;2023-04-06T12:24:44;0;0;
77896;PMS5003;67092;64.282;21.056;2023-04-06T12:27:10;1;1;
77896;PMS5003;67092;64.282;21.056;2023-04-06T12:29:35;1;1;
77896;PMS5003;67092;64.282;21.056;2023-04-06T12:32:01;1;1;
77896;PMS5003;67092;64.282;21.056;2023-04-06T12:34:27;0;0;
77896;PMS5003;67092;64.282;21.056;2023-04-06T12:36:52;1;1;
77896;PMS5003;67092;64.282;21.056;2023-04-06T12:39:18;0;0;
77896;PMS5003;67092;64.282;21.056;2023-04-06T12:41:44;0;0;
77896;PMS5003;67092;64.282;21.056;2023-04-06T12:44:09;0;0;
77896;PMS5003;67092;64.282;21.056;2023-04-06T12:46:35;0;0;
77896;PMS5003;67092;64.282;21.056;2023-04-06T12:49:00;0;0;
77896;PMS5003;67092;64.282;21.056;2023-04-06T12:51:27;1;1;
77896;PMS5003;67092;64.282;21.056;2023-04-06T12:53:52;0;0;
77896;PMS5003;67092;64.282;21.056;2023-04-06T12:56:17;0;0;
77896;PMS5003;67092;64.282;21.056;2023-04-06T12:58:43;0;0;
77896;PMS5003;67092;64.282;21.056;2023-04-06T13:01:09;1;1;
77896;PMS5003;67092;64.282;21.056;2023-04-06T13:03:34;1;1;
77896;PMS5003;67092;64.282;21.056;2023-04-06T13:06:00;0;0;
77896;PMS5003;67092;64.282;21.056;2023-04-06T13:08:26;2;1;
77896;PMS5003;67092;64.282;21.056;2023-04-06T13:10:51;1;1;
77896;PMS5003;67092;64.282;21.056;2023-04-06T13:13:17;0;0;
77896;PMS5003;67092;64.282;21.056;2023-04-06T13:15:44;0;0;
77896;PMS5003;67092;64.282;21.056;2023-04-06T13:18:08;1;1;
77896;PMS5003;67092;64.282;21.056;2023-04-06T13:20:34;0;0;
77896;PMS5003;67092;64.282;21.056;2023-04-06T13:22:59;1;1;
77896;PMS5003;67092;64.282;21.056;2023-04-06T13:25:25;0;0;
77896;PMS5003;67092;64.282;21.056;2023-04-06T13:27:51;1;1;
77896;PMS5003;67092;64.282;21.056;2023-04-06T13:30:17;0;0;
77896;PMS5003;67092;64.282;21.056;2023-04-06T13:32:42;1;1;
77896;PMS5003;67092;64.282;21.056;2023-04-06T13:35:08;0;0;
77896;PMS5003;67092;64.282;21.056;2023-04-06T13:37:34;1;1;
77896;PMS5003;67092;64.282;21.056;2023-04-06T13:39:59;2;1;
77896;PMS5003;67092;64.282;21.056;2023-04-06T13:42:25;1;1;
77896;PMS5003;67092;64.282;21.056;2023-04-06T13:44:50;1;1;
77896;PMS5003;67092;64.282;21.056;2023-04-06T13:47:16;0;0;
77896;PMS5003;67092;64.282;21.056;2023-04-06T13:49:42;1;1;
77896;PMS5003;67092;64.282;21.056;2023-04-06T13:52:07;0;0;
77896;PMS5003;67092;64.282;21.056;2023-04-06T13:54:33;0;0;
77896;PMS5003;67092;64.282;21.056;2023-04-06T13:56:58;0;0;
77896;PMS5003;67092;64.282;21.056;2023-04-06T13:59:24;0;0;
77896;PMS5003;67092;64.282;21.056;2023-04-06T14:01:50;1;1;
77896;PMS5003;67092;64.282;21.056;2023-04-06T14:04:15;0;0;
77896;PMS5003;67092;64.282;21.056;2023-04-06T14:06:41;0;0;
77896;PMS5003;67092;64.282;21.056;2023-04-06T14:09:07;1;1;
77896;PMS5003;67092;64.282;21.056;2023-04-06T14:11:32;1;1;
77896;PMS5003;67092;64.282;21.056;2023-04-06T14:13:58;1;1;
77896;PMS5003;67092;64.282;21.056;2023-04-06T14:16:24;1;0;
77896;PMS5003;67092;64.282;21.056;2023-04-06T14:18:50;1;1;
77896;PMS5003;67092;64.282;21.056;2023-04-06T14:21:15;1;1;
77896;PMS5003;67092;64.282;21.056;2023-04-06T14:23:41;1;1;
77896;PMS5003;67092;64.282;21.056;2023-04-06T14:26:07;1;1;
77896;PMS5003;67092;64.282;21.056;2023-04-06T14:28:32;1;1;
77896;PMS5003;67092;64.282;21.056;2023-04-06T14:30:58;2;2;
77896;PMS5003;67092;64.282;21.056;2023-04-06T14:33:23;2;1;
77896;PMS5003;67092;64.282;21.056;2023-04-06T14:35:49;1;1;
77896;PMS5003;67092;64.282;21.056;2023-04-06T14:38:15;2;2;
77896;PMS5003;67092;64.282;21.056;2023-04-06T14:40:40;2;2;
77896;PMS5003;67092;64.282;21.056;2023-04-06T14:43:06;2;2;
77896;PMS5003;67092;64.282;21.056;2023-04-06T14:45:32;1;1;
77896;PMS5003;67092;64.282;21.056;2023-04-06T14:47:57;3;3;
77896;PMS5003;67092;64.282;21.056;2023-04-06T14:50:23;2;2;
77896;PMS5003;67092;64.282;21.056;2023-04-06T14:52:49;2;2;
77896;PMS5003;67092;64.282;21.056;2023-04-06T14:55:14;1;1;
77896;PMS5003;67092;64.282;21.056;2023-04-06T14:57:40;3;3;
77896;PMS5003;67092;64.282;21.056;2023-04-06T15:00:06;3;2;
77896;PMS5003;67092;64.282;21.056;2023-04-06T15:02:32;2;2;
77896;PMS5003;67092;64.282;21.056;2023-04-06T15:04:57;1;1;
77896;PMS5003;67092;64.282;21.056;2023-04-06T15:07:23;2;2;
77896;PMS5003;67092;64.282;21.056;2023-04-06T15:09:48;1;1;
77896;PMS5003;67092;64.282;21.056;2023-04-06T15:12:14;3;3;
77896;PMS5003;67092;64.282;21.056;2023-04-06T15:14:40;3;3;
77896;PMS5003;67092;64.282;21.056;2023-04-06T15:17:06;3;3;
77896;PMS5003;67092;64.282;21.056;2023-04-06T15:19:31;2;2;
77896;PMS5003;67092;64.282;21.056;2023-04-06T15:21:57;2;2;
77896;PMS5003;67092;64.282;21.056;2023-04-06T15:24:22;3;2;
77896;PMS5003;67092;64.282;21.056;2023-04-06T15:26:48;3;3;
77896;PMS5003;67092;64.282;21.056;2023-04-06T15:29:14;3;3;
77896;PMS5003;67092;64.282;21.056;2023-04-06T15:31:39;3;3;
77896;PMS5003;67092;64.282;21.056;2023-04-06T15:34:05;1;1;
77896;PMS5003;67092;64.282;21.056;2023-04-06T15:36:31;3;3;
77896;PMS5003;67092;64.282;21.056;2023-04-06T15:38:57;4;3;
77896;PMS5003;67092;64.282;21.056;2023-04-06T15:41:22;5;5;
77896;PMS5003;67092;64.282;21.056;2023-04-06T15:43:48;7;4;
77896;PMS5003;67092;64.282;21.056;2023-04-06T15:46:13;5;4;
77896;PMS5003;67092;64.282;21.056;2023-04-06T15:48:39;7;7;
77896;PMS5003;67092;64.282;21.056;2023-04-06T15:51:04;10;9;
77896;PMS5003;67092;64.282;21.056;2023-04-06T15:53:29;6;6;
77896;PMS5003;67092;64.282;21.056;2023-04-06T15:55:57;7;7;
77896;PMS5003;67092;64.282;21.056;2023-04-06T15:58:20;6;6;
77896;PMS5003;67092;64.282;21.056;2023-04-06T16:00:46;8;8;
77896;PMS5003;67092;64.282;21.056;2023-04-06T16:03:12;11;9;
77896;PMS5003;67092;64.282;21.056;2023-04-06T16:05:37;9;9;
77896;PMS5003;67092;64.282;21.056;2023-04-06T16:08:03;8;8;
77896;PMS5003;67092;64.282;21.056;2023-04-06T16:10:29;9;8;
77896;PMS5003;67092;64.282;21.056;2023-04-06T16:12:54;9;9;
77896;PMS5003;67092;64.282;21.056;2023-04-06T16:15:20;10;10;
77896;PMS5003;67092;64.282;21.056;2023-04-06T16:17:46;7;7;
77896;PMS5003;67092;64.282;21.056;2023-04-06T16:20:11;8;8;
77896;PMS5003;67092;64.282;21.056;2023-04-06T16:22:37;8;8;
77896;PMS5003;67092;64.282;21.056;2023-04-06T16:25:02;10;10;
77896;PMS5003;67092;64.282;21.056;2023-04-06T16:27:28;9;9;
77896;PMS5003;67092;64.282;21.056;2023-04-06T16:29:54;13;11;
77896;PMS5003;67092;64.282;21.056;2023-04-06T16:32:19;7;7;
77896;PMS5003;67092;64.282;21.056;2023-04-06T16:34:45;10;10;